sensor_id;sensor_type;location;lat;lon;timestamp;temperature;humidity
14727;DHT22;7454;51.256;8.176;2023-02-28T00:00:26;-0.90;75.50
14727;DHT22;7454;51.256;8.176;2023-02-28T00:02:52;-0.90;75.40
14727;DHT22;7454;51.256;8.176;2023-02-28T00:05:19;-0.90;75.40
14727;DHT22;7454;51.256;8.176;2023-02-28T00:07:46;-0.90;75.40
14727;DHT22;7454;51.256;8.176;2023-02-28T00:10:13;-0.90;75.50
14727;DHT22;7454;51.256;8.176;2023-02-28T00:12:40;-0.90;75.40
14727;DHT22;7454;51.256;8.176;2023-02-28T00:15:06;-0.90;75.40
14727;DHT22;7454;51.256;8.176;2023-02-28T00:17:34;-0.90;75.40
14727;DHT22;7454;51.256;8.176;2023-02-28T00:20:00;-0.80;75.50
14727;DHT22;7454;51.256;8.176;2023-02-28T00:22:41;-0.70;75.20
14727;DHT22;7454;51.256;8.176;2023-02-28T00:25:08;-0.70;75.30
14727;DHT22;7454;51.256;8.176;2023-02-28T00:27:35;-0.70;75.50
14727;DHT22;7454;51.256;8.176;2023-02-28T00:30:04;-0.80;75.50
14727;DHT22;7454;51.256;8.176;2023-02-28T00:32:31;-0.80;75.70
14727;DHT22;7454;51.256;8.176;2023-02-28T00:34:56;-0.70;75.70
14727;DHT22;7454;51.256;8.176;2023-02-28T00:37:22;-0.70;75.60
14727;DHT22;7454;51.256;8.176;2023-02-28T00:39:48;-0.70;75.70
14727;DHT22;7454;51.256;8.176;2023-02-28T00:42:15;-0.70;75.80
14727;DHT22;7454;51.256;8.176;2023-02-28T00:44:40;-0.60;75.80
14727;DHT22;7454;51.256;8.176;2023-02-28T00:47:06;-0.70;75.70
14727;DHT22;7454;51.256;8.176;2023-02-28T00:49:32;-0.70;75.70
14727;DHT22;7454;51.256;8.176;2023-02-28T00:51:57;-0.60;75.40
14727;DHT22;7454;51.256;8.176;2023-02-28T00:54:25;-0.60;75.60
14727;DHT22;7454;51.256;8.176;2023-02-28T00:56:51;-0.70;75.60
14727;DHT22;7454;51.256;8.176;2023-02-28T00:59:17;-0.70;75.70
14727;DHT22;7454;51.256;8.176;2023-02-28T01:01:44;-0.80;75.70
14727;DHT22;7454;51.256;8.176;2023-02-28T01:04:11;-0.80;75.80
14727;DHT22;7454;51.256;8.176;2023-02-28T01:06:37;-0.70;75.70
14727;DHT22;7454;51.256;8.176;2023-02-28T01:09:04;-0.70;75.80
14727;DHT22;7454;51.256;8.176;2023-02-28T01:11:30;-0.70;75.60
14727;DHT22;7454;51.256;8.176;2023-02-28T01:13:56;-0.70;75.50
14727;DHT22;7454;51.256;8.176;2023-02-28T01:16:21;-0.60;75.50
14727;DHT22;7454;51.256;8.176;2023-02-28T01:18:47;-0.70;75.80
14727;DHT22;7454;51.256;8.176;2023-02-28T01:21:14;-0.70;75.60
14727;DHT22;7454;51.256;8.176;2023-02-28T01:23:41;-0.60;75.70
14727;DHT22;7454;51.256;8.176;2023-02-28T01:26:09;-0.60;75.80
14727;DHT22;7454;51.256;8.176;2023-02-28T01:28:38;-0.70;75.80
14727;DHT22;7454;51.256;8.176;2023-02-28T01:31:05;-0.70;75.80
14727;DHT22;7454;51.256;8.176;2023-02-28T01:33:31;-0.70;75.80
14727;DHT22;7454;51.256;8.176;2023-02-28T01:35:59;-0.70;75.90
14727;DHT22;7454;51.256;8.176;2023-02-28T01:38:25;-0.70;75.90
14727;DHT22;7454;51.256;8.176;2023-02-28T01:40:53;-0.80;75.80
14727;DHT22;7454;51.256;8.176;2023-02-28T01:43:26;-0.80;75.80
14727;DHT22;7454;51.256;8.176;2023-02-28T01:45:54;-0.80;75.80
14727;DHT22;7454;51.256;8.176;2023-02-28T01:48:23;-0.80;75.90
14727;DHT22;7454;51.256;8.176;2023-02-28T01:50:51;-0.90;75.80
14727;DHT22;7454;51.256;8.176;2023-02-28T01:53:23;-0.90;75.80
14727;DHT22;7454;51.256;8.176;2023-02-28T01:55:51;-0.90;75.80
14727;DHT22;7454;51.256;8.176;2023-02-28T01:58:19;-0.90;75.70
14727;DHT22;7454;51.256;8.176;2023-02-28T02:00:46;-0.80;75.70
14727;DHT22;7454;51.256;8.176;2023-02-28T02:03:13;-0.80;75.60
14727;DHT22;7454;51.256;8.176;2023-02-28T02:05:41;-0.80;75.70
14727;DHT22;7454;51.256;8.176;2023-02-28T02:08:17;-0.80;75.60
14727;DHT22;7454;51.256;8.176;2023-02-28T02:10:46;-0.80;75.60
14727;DHT22;7454;51.256;8.176;2023-02-28T02:13:37;-0.70;75.60
14727;DHT22;7454;51.256;8.176;2023-02-28T02:16:22;-0.80;75.40
14727;DHT22;7454;51.256;8.176;2023-02-28T02:19:21;-0.80;75.50
14727;DHT22;7454;51.256;8.176;2023-02-28T02:27:39;-0.80;75.50
14727;DHT22;7454;51.256;8.176;2023-02-28T02:30:15;-0.80;75.50
14727;DHT22;7454;51.256;8.176;2023-02-28T02:41:08;-1.00;75.20
14727;DHT22;7454;51.256;8.176;2023-02-28T02:43:45;-1.00;75.10
14727;DHT22;7454;51.256;8.176;2023-02-28T02:46:14;-1.00;75.10
14727;DHT22;7454;51.256;8.176;2023-02-28T02:48:45;-1.00;75.00
14727;DHT22;7454;51.256;8.176;2023-02-28T02:51:13;-1.00;75.00
14727;DHT22;7454;51.256;8.176;2023-02-28T02:53:49;-1.10;74.80
14727;DHT22;7454;51.256;8.176;2023-02-28T02:56:19;-1.00;74.80
14727;DHT22;7454;51.256;8.176;2023-02-28T02:58:47;-1.00;74.70
14727;DHT22;7454;51.256;8.176;2023-02-28T03:01:16;-1.00;74.70
14727;DHT22;7454;51.256;8.176;2023-02-28T03:03:56;-1.00;74.60
14727;DHT22;7454;51.256;8.176;2023-02-28T03:06:24;-1.00;74.60
14727;DHT22;7454;51.256;8.176;2023-02-28T03:08:50;-1.00;74.60
14727;DHT22;7454;51.256;8.176;2023-02-28T03:11:16;-1.00;74.50
14727;DHT22;7454;51.256;8.176;2023-02-28T03:26:52;-1.00;74.00
14727;DHT22;7454;51.256;8.176;2023-02-28T03:29:36;-1.10;74.00
14727;DHT22;7454;51.256;8.176;2023-02-28T03:32:18;-1.10;73.80
14727;DHT22;7454;51.256;8.176;2023-02-28T03:37:25;-1.10;73.90
14727;DHT22;7454;51.256;8.176;2023-02-28T03:39:56;-1.10;73.80
14727;DHT22;7454;51.256;8.176;2023-02-28T03:42:25;-1.20;73.80
14727;DHT22;7454;51.256;8.176;2023-02-28T03:44:54;-1.20;73.70
14727;DHT22;7454;51.256;8.176;2023-02-28T03:47:27;-1.20;73.70
14727;DHT22;7454;51.256;8.176;2023-02-28T03:50:10;-1.20;73.70
14727;DHT22;7454;51.256;8.176;2023-02-28T03:52:49;-1.20;73.50
14727;DHT22;7454;51.256;8.176;2023-02-28T03:55:16;-1.10;73.60
14727;DHT22;7454;51.256;8.176;2023-02-28T04:00:38;-1.20;73.60
14727;DHT22;7454;51.256;8.176;2023-02-28T04:03:05;-1.20;73.70
14727;DHT22;7454;51.256;8.176;2023-02-28T04:05:31;-1.20;73.70
14727;DHT22;7454;51.256;8.176;2023-02-28T04:08:04;-1.10;73.50
14727;DHT22;7454;51.256;8.176;2023-02-28T04:10:31;-1.20;73.30
14727;DHT22;7454;51.256;8.176;2023-02-28T04:12:57;-1.20;73.40
14727;DHT22;7454;51.256;8.176;2023-02-28T04:15:22;-1.20;73.30
14727;DHT22;7454;51.256;8.176;2023-02-28T04:17:50;-1.20;73.20
14727;DHT22;7454;51.256;8.176;2023-02-28T04:20:15;-1.20;73.00
14727;DHT22;7454;51.256;8.176;2023-02-28T04:22:41;-1.20;73.20
14727;DHT22;7454;51.256;8.176;2023-02-28T04:25:07;-1.20;73.10
14727;DHT22;7454;51.256;8.176;2023-02-28T04:27:33;-1.20;73.20
14727;DHT22;7454;51.256;8.176;2023-02-28T04:29:59;-1.20;73.10
14727;DHT22;7454;51.256;8.176;2023-02-28T04:32:24;-1.20;73.20
14727;DHT22;7454;51.256;8.176;2023-02-28T04:34:50;-1.20;73.20
14727;DHT22;7454;51.256;8.176;2023-02-28T04:37:16;-1.20;73.40
14727;DHT22;7454;51.256;8.176;2023-02-28T04:39:41;-1.20;73.20
14727;DHT22;7454;51.256;8.176;2023-02-28T04:42:07;-1.20;73.00
14727;DHT22;7454;51.256;8.176;2023-02-28T04:44:33;-1.30;73.20
14727;DHT22;7454;51.256;8.176;2023-02-28T04:46:59;-1.30;73.20
14727;DHT22;7454;51.256;8.176;2023-02-28T04:49:24;-1.30;73.20
14727;DHT22;7454;51.256;8.176;2023-02-28T04:51:50;-1.20;72.90
14727;DHT22;7454;51.256;8.176;2023-02-28T04:54:15;-1.30;72.80
14727;DHT22;7454;51.256;8.176;2023-02-28T04:56:43;-1.30;72.90
14727;DHT22;7454;51.256;8.176;2023-02-28T04:59:08;-1.30;73.00
14727;DHT22;7454;51.256;8.176;2023-02-28T05:01:34;-1.30;72.80
14727;DHT22;7454;51.256;8.176;2023-02-28T05:04:02;-1.40;72.90
14727;DHT22;7454;51.256;8.176;2023-02-28T05:06:29;-1.40;72.90
14727;DHT22;7454;51.256;8.176;2023-02-28T05:08:56;-1.40;72.90
14727;DHT22;7454;51.256;8.176;2023-02-28T05:11:23;-1.40;72.90
14727;DHT22;7454;51.256;8.176;2023-02-28T05:14:04;-1.40;72.80
14727;DHT22;7454;51.256;8.176;2023-02-28T05:16:31;-1.40;72.90
14727;DHT22;7454;51.256;8.176;2023-02-28T05:18:57;-1.50;72.80
14727;DHT22;7454;51.256;8.176;2023-02-28T05:21:24;-1.60;72.80
14727;DHT22;7454;51.256;8.176;2023-02-28T05:24:01;-1.70;72.80
14727;DHT22;7454;51.256;8.176;2023-02-28T05:26:29;-1.70;72.90
14727;DHT22;7454;51.256;8.176;2023-02-28T05:28:55;-1.80;73.00
14727;DHT22;7454;51.256;8.176;2023-02-28T05:31:21;-1.80;73.10
14727;DHT22;7454;51.256;8.176;2023-02-28T05:33:47;-1.80;73.20
14727;DHT22;7454;51.256;8.176;2023-02-28T05:36:13;-1.80;73.20
14727;DHT22;7454;51.256;8.176;2023-02-28T05:38:38;-1.80;73.40
14727;DHT22;7454;51.256;8.176;2023-02-28T05:41:05;-1.80;73.40
14727;DHT22;7454;51.256;8.176;2023-02-28T05:43:39;-1.80;73.40
14727;DHT22;7454;51.256;8.176;2023-02-28T05:46:06;-1.70;73.40
14727;DHT22;7454;51.256;8.176;2023-02-28T05:48:36;-1.70;73.40
14727;DHT22;7454;51.256;8.176;2023-02-28T05:51:02;-1.60;73.30
14727;DHT22;7454;51.256;8.176;2023-02-28T05:53:29;-1.60;73.20
14727;DHT22;7454;51.256;8.176;2023-02-28T05:55:55;-1.60;73.30
14727;DHT22;7454;51.256;8.176;2023-02-28T05:58:21;-1.60;73.30
14727;DHT22;7454;51.256;8.176;2023-02-28T06:00:47;-1.60;73.30
14727;DHT22;7454;51.256;8.176;2023-02-28T06:03:13;-1.60;73.20
14727;DHT22;7454;51.256;8.176;2023-02-28T06:05:38;-1.70;73.20
14727;DHT22;7454;51.256;8.176;2023-02-28T06:08:04;-1.70;73.30
14727;DHT22;7454;51.256;8.176;2023-02-28T06:10:32;-1.80;73.30
14727;DHT22;7454;51.256;8.176;2023-02-28T06:12:59;-1.70;73.40
14727;DHT22;7454;51.256;8.176;2023-02-28T06:15:27;-1.80;73.30
14727;DHT22;7454;51.256;8.176;2023-02-28T06:17:53;-1.80;73.30
14727;DHT22;7454;51.256;8.176;2023-02-28T06:20:19;-1.80;73.20
14727;DHT22;7454;51.256;8.176;2023-02-28T06:22:44;-1.80;73.20
14727;DHT22;7454;51.256;8.176;2023-02-28T06:25:10;-1.90;73.20
14727;DHT22;7454;51.256;8.176;2023-02-28T06:27:36;-1.80;73.20
14727;DHT22;7454;51.256;8.176;2023-02-28T06:30:01;-1.80;73.00
14727;DHT22;7454;51.256;8.176;2023-02-28T06:32:27;-1.80;72.80
14727;DHT22;7454;51.256;8.176;2023-02-28T06:34:53;-1.70;72.80
14727;DHT22;7454;51.256;8.176;2023-02-28T06:37:18;-1.70;72.60
14727;DHT22;7454;51.256;8.176;2023-02-28T06:39:44;-1.70;72.70
14727;DHT22;7454;51.256;8.176;2023-02-28T06:42:10;-1.80;72.70
14727;DHT22;7454;51.256;8.176;2023-02-28T06:44:36;-1.80;73.00
14727;DHT22;7454;51.256;8.176;2023-02-28T06:47:02;-1.90;72.90
14727;DHT22;7454;51.256;8.176;2023-02-28T06:49:32;-2.00;72.70
14727;DHT22;7454;51.256;8.176;2023-02-28T06:51:59;-2.00;72.80
14727;DHT22;7454;51.256;8.176;2023-02-28T06:54:24;-2.00;72.90
14727;DHT22;7454;51.256;8.176;2023-02-28T06:56:51;-2.00;72.90
14727;DHT22;7454;51.256;8.176;2023-02-28T06:59:17;-2.00;72.90
14727;DHT22;7454;51.256;8.176;2023-02-28T07:01:42;-2.00;72.80
14727;DHT22;7454;51.256;8.176;2023-02-28T07:04:08;-1.80;72.70
14727;DHT22;7454;51.256;8.176;2023-02-28T07:06:34;-1.80;72.80
14727;DHT22;7454;51.256;8.176;2023-02-28T07:08:59;-1.80;72.60
14727;DHT22;7454;51.256;8.176;2023-02-28T07:11:26;-1.80;72.60
14727;DHT22;7454;51.256;8.176;2023-02-28T07:13:55;-1.80;72.70
14727;DHT22;7454;51.256;8.176;2023-02-28T07:16:22;-1.80;72.70
14727;DHT22;7454;51.256;8.176;2023-02-28T07:18:49;-1.70;72.70
14727;DHT22;7454;51.256;8.176;2023-02-28T07:21:15;-1.70;72.70
14727;DHT22;7454;51.256;8.176;2023-02-28T07:23:40;-1.70;72.40
14727;DHT22;7454;51.256;8.176;2023-02-28T07:26:07;-1.60;72.30
14727;DHT22;7454;51.256;8.176;2023-02-28T07:28:38;-1.70;72.60
14727;DHT22;7454;51.256;8.176;2023-02-28T07:31:04;-1.60;72.40
14727;DHT22;7454;51.256;8.176;2023-02-28T07:33:30;-1.60;72.20
14727;DHT22;7454;51.256;8.176;2023-02-28T07:36:03;-1.60;72.00
14727;DHT22;7454;51.256;8.176;2023-02-28T07:38:30;-1.50;71.70
14727;DHT22;7454;51.256;8.176;2023-02-28T07:40:55;-1.40;71.80
14727;DHT22;7454;51.256;8.176;2023-02-28T07:43:21;-1.40;72.00
14727;DHT22;7454;51.256;8.176;2023-02-28T07:45:47;-1.30;71.70
14727;DHT22;7454;51.256;8.176;2023-02-28T07:48:12;-1.20;71.30
14727;DHT22;7454;51.256;8.176;2023-02-28T07:50:38;-1.20;71.50
14727;DHT22;7454;51.256;8.176;2023-02-28T07:53:03;-1.10;72.30
14727;DHT22;7454;51.256;8.176;2023-02-28T07:55:29;-1.10;72.10
14727;DHT22;7454;51.256;8.176;2023-02-28T07:57:56;-1.00;71.70
14727;DHT22;7454;51.256;8.176;2023-02-28T08:00:22;-1.00;71.20
14727;DHT22;7454;51.256;8.176;2023-02-28T08:02:48;-0.90;71.70
14727;DHT22;7454;51.256;8.176;2023-02-28T08:05:14;-1.00;71.50
14727;DHT22;7454;51.256;8.176;2023-02-28T08:07:40;-0.90;71.60
14727;DHT22;7454;51.256;8.176;2023-02-28T08:10:06;-0.90;72.40
14727;DHT22;7454;51.256;8.176;2023-02-28T08:12:32;-0.90;72.50
14727;DHT22;7454;51.256;8.176;2023-02-28T08:14:57;-0.90;72.30
14727;DHT22;7454;51.256;8.176;2023-02-28T08:17:23;-0.80;72.00
14727;DHT22;7454;51.256;8.176;2023-02-28T08:19:49;-0.80;71.80
14727;DHT22;7454;51.256;8.176;2023-02-28T08:22:14;-0.80;72.10
14727;DHT22;7454;51.256;8.176;2023-02-28T08:24:43;-0.80;72.10
14727;DHT22;7454;51.256;8.176;2023-02-28T08:27:09;-0.80;72.40
14727;DHT22;7454;51.256;8.176;2023-02-28T08:29:36;-0.70;72.60
14727;DHT22;7454;51.256;8.176;2023-02-28T08:32:03;-0.70;71.80
14727;DHT22;7454;51.256;8.176;2023-02-28T08:34:29;-0.60;71.40
14727;DHT22;7454;51.256;8.176;2023-02-28T08:36:55;-0.50;71.60
14727;DHT22;7454;51.256;8.176;2023-02-28T08:39:21;-0.40;71.60
14727;DHT22;7454;51.256;8.176;2023-02-28T08:41:46;-0.30;71.10
14727;DHT22;7454;51.256;8.176;2023-02-28T08:44:12;-0.20;71.00
14727;DHT22;7454;51.256;8.176;2023-02-28T08:46:37;-0.10;71.30
14727;DHT22;7454;51.256;8.176;2023-02-28T08:49:03;0.00;71.30
14727;DHT22;7454;51.256;8.176;2023-02-28T08:51:32;0.10;71.10
14727;DHT22;7454;51.256;8.176;2023-02-28T08:54:04;0.20;70.70
14727;DHT22;7454;51.256;8.176;2023-02-28T08:56:30;0.20;70.60
14727;DHT22;7454;51.256;8.176;2023-02-28T08:58:56;0.30;70.70
14727;DHT22;7454;51.256;8.176;2023-02-28T09:01:23;0.40;70.60
14727;DHT22;7454;51.256;8.176;2023-02-28T09:03:52;0.50;70.10
14727;DHT22;7454;51.256;8.176;2023-02-28T09:06:19;0.50;70.10
14727;DHT22;7454;51.256;8.176;2023-02-28T09:08:46;0.50;69.70
14727;DHT22;7454;51.256;8.176;2023-02-28T09:11:12;0.50;68.80
14727;DHT22;7454;51.256;8.176;2023-02-28T09:13:38;0.50;69.00
14727;DHT22;7454;51.256;8.176;2023-02-28T09:16:04;0.50;68.70
14727;DHT22;7454;51.256;8.176;2023-02-28T09:18:31;0.50;68.30
14727;DHT22;7454;51.256;8.176;2023-02-28T09:20:56;0.50;68.20
14727;DHT22;7454;51.256;8.176;2023-02-28T09:23:23;0.60;67.60
14727;DHT22;7454;51.256;8.176;2023-02-28T09:25:50;0.60;67.00
14727;DHT22;7454;51.256;8.176;2023-02-28T09:28:17;0.60;67.10
14727;DHT22;7454;51.256;8.176;2023-02-28T09:30:44;0.70;66.90
14727;DHT22;7454;51.256;8.176;2023-02-28T09:33:11;0.70;66.90
14727;DHT22;7454;51.256;8.176;2023-02-28T09:35:36;0.80;66.80
14727;DHT22;7454;51.256;8.176;2023-02-28T09:38:03;0.80;66.70
14727;DHT22;7454;51.256;8.176;2023-02-28T09:40:30;0.80;66.20
14727;DHT22;7454;51.256;8.176;2023-02-28T09:42:57;0.90;65.40
14727;DHT22;7454;51.256;8.176;2023-02-28T09:45:39;0.90;65.20
14727;DHT22;7454;51.256;8.176;2023-02-28T09:48:19;1.00;65.30
14727;DHT22;7454;51.256;8.176;2023-02-28T09:53:48;1.20;65.20
14727;DHT22;7454;51.256;8.176;2023-02-28T09:56:21;1.30;64.80
14727;DHT22;7454;51.256;8.176;2023-02-28T09:58:54;1.30;64.40
14727;DHT22;7454;51.256;8.176;2023-02-28T10:01:27;1.30;64.30
14727;DHT22;7454;51.256;8.176;2023-02-28T10:04:00;1.40;64.40
14727;DHT22;7454;51.256;8.176;2023-02-28T10:06:32;1.40;64.10
14727;DHT22;7454;51.256;8.176;2023-02-28T10:09:04;1.40;64.30
14727;DHT22;7454;51.256;8.176;2023-02-28T10:11:38;1.40;63.80
14727;DHT22;7454;51.256;8.176;2023-02-28T10:14:18;1.40;63.90
14727;DHT22;7454;51.256;8.176;2023-02-28T10:16:46;1.40;64.10
14727;DHT22;7454;51.256;8.176;2023-02-28T10:19:33;1.40;63.80
14727;DHT22;7454;51.256;8.176;2023-02-28T10:24:35;1.40;63.30
14727;DHT22;7454;51.256;8.176;2023-02-28T10:27:12;1.30;63.40
14727;DHT22;7454;51.256;8.176;2023-02-28T10:29:40;1.30;63.50
14727;DHT22;7454;51.256;8.176;2023-02-28T10:32:08;1.40;63.60
14727;DHT22;7454;51.256;8.176;2023-02-28T10:34:36;1.40;63.50
14727;DHT22;7454;51.256;8.176;2023-02-28T10:37:02;1.40;63.60
14727;DHT22;7454;51.256;8.176;2023-02-28T10:39:45;1.50;63.40
14727;DHT22;7454;51.256;8.176;2023-02-28T10:42:28;1.50;63.40
14727;DHT22;7454;51.256;8.176;2023-02-28T10:45:14;1.50;63.20
14727;DHT22;7454;51.256;8.176;2023-02-28T10:48:00;1.60;63.50
14727;DHT22;7454;51.256;8.176;2023-02-28T10:50:34;1.70;63.50
14727;DHT22;7454;51.256;8.176;2023-02-28T10:53:09;1.70;63.30
14727;DHT22;7454;51.256;8.176;2023-02-28T10:55:41;1.80;63.10
14727;DHT22;7454;51.256;8.176;2023-02-28T10:58:20;1.80;63.20
14727;DHT22;7454;51.256;8.176;2023-02-28T11:00:47;1.80;62.90
14727;DHT22;7454;51.256;8.176;2023-02-28T11:06:13;1.80;63.00
14727;DHT22;7454;51.256;8.176;2023-02-28T11:08:45;1.70;62.50
14727;DHT22;7454;51.256;8.176;2023-02-28T11:11:13;1.70;62.90
14727;DHT22;7454;51.256;8.176;2023-02-28T11:13:39;1.70;62.80
14727;DHT22;7454;51.256;8.176;2023-02-28T11:16:05;1.70;62.50
14727;DHT22;7454;51.256;8.176;2023-02-28T11:18:38;1.70;62.60
14727;DHT22;7454;51.256;8.176;2023-02-28T11:21:07;1.70;62.60
14727;DHT22;7454;51.256;8.176;2023-02-28T11:23:34;1.80;63.00
14727;DHT22;7454;51.256;8.176;2023-02-28T11:26:02;1.90;62.80
14727;DHT22;7454;51.256;8.176;2023-02-28T11:28:31;1.90;62.60
14727;DHT22;7454;51.256;8.176;2023-02-28T11:31:17;2.00;62.60
14727;DHT22;7454;51.256;8.176;2023-02-28T11:38:52;2.00;62.40
14727;DHT22;7454;51.256;8.176;2023-02-28T11:41:22;2.00;62.50
14727;DHT22;7454;51.256;8.176;2023-02-28T11:55:51;2.10;62.10
14727;DHT22;7454;51.256;8.176;2023-02-28T11:58:38;2.10;62.20
14727;DHT22;7454;51.256;8.176;2023-02-28T12:01:16;2.20;62.10
14727;DHT22;7454;51.256;8.176;2023-02-28T12:06:26;2.20;62.00
14727;DHT22;7454;51.256;8.176;2023-02-28T12:11:43;2.30;61.90
14727;DHT22;7454;51.256;8.176;2023-02-28T12:25:02;2.30;62.10
14727;DHT22;7454;51.256;8.176;2023-02-28T12:27:33;2.40;62.00
14727;DHT22;7454;51.256;8.176;2023-02-28T12:30:03;2.50;62.10
14727;DHT22;7454;51.256;8.176;2023-02-28T12:32:52;2.50;61.90
14727;DHT22;7454;51.256;8.176;2023-02-28T12:35:23;2.50;61.80
14727;DHT22;7454;51.256;8.176;2023-02-28T12:37:53;2.60;62.10
14727;DHT22;7454;51.256;8.176;2023-02-28T12:41:11;2.50;62.30
14727;DHT22;7454;51.256;8.176;2023-02-28T12:43:37;2.60;62.00
14727;DHT22;7454;51.256;8.176;2023-02-28T12:46:10;2.70;62.10
14727;DHT22;7454;51.256;8.176;2023-02-28T12:48:48;2.70;62.30
14727;DHT22;7454;51.256;8.176;2023-02-28T12:51:17;2.70;62.00
14727;DHT22;7454;51.256;8.176;2023-02-28T12:53:53;2.70;62.00
14727;DHT22;7454;51.256;8.176;2023-02-28T12:59:14;2.70;62.30
14727;DHT22;7454;51.256;8.176;2023-02-28T13:04:47;2.80;61.90
14727;DHT22;7454;51.256;8.176;2023-02-28T13:10:08;2.80;62.00
14727;DHT22;7454;51.256;8.176;2023-02-28T13:12:34;2.80;62.00
14727;DHT22;7454;51.256;8.176;2023-02-28T13:17:48;2.90;62.10
14727;DHT22;7454;51.256;8.176;2023-02-28T13:20:19;2.90;61.90
14727;DHT22;7454;51.256;8.176;2023-02-28T13:22:48;2.90;61.60
14727;DHT22;7454;51.256;8.176;2023-02-28T13:27:46;3.00;61.60
14727;DHT22;7454;51.256;8.176;2023-02-28T13:31:16;3.00;61.70
14727;DHT22;7454;51.256;8.176;2023-02-28T13:33:17;3.00;61.50
14727;DHT22;7454;51.256;8.176;2023-02-28T13:38:51;3.00;61.60
14727;DHT22;7454;51.256;8.176;2023-02-28T13:46:35;3.10;61.60
14727;DHT22;7454;51.256;8.176;2023-02-28T13:49:47;3.10;61.70
14727;DHT22;7454;51.256;8.176;2023-02-28T14:02:53;3.10;61.50
14727;DHT22;7454;51.256;8.176;2023-02-28T14:05:26;3.20;61.50
14727;DHT22;7454;51.256;8.176;2023-02-28T14:07:56;3.30;61.50
14727;DHT22;7454;51.256;8.176;2023-02-28T14:16:03;3.20;61.50
14727;DHT22;7454;51.256;8.176;2023-02-28T14:18:30;3.20;61.50
14727;DHT22;7454;51.256;8.176;2023-02-28T14:35:35;3.30;61.30
14727;DHT22;7454;51.256;8.176;2023-02-28T14:38:23;3.30;61.20
14727;DHT22;7454;51.256;8.176;2023-02-28T14:40:52;3.30;61.50
14727;DHT22;7454;51.256;8.176;2023-02-28T14:43:22;3.30;61.60
14727;DHT22;7454;51.256;8.176;2023-02-28T14:45:55;3.30;61.60
14727;DHT22;7454;51.256;8.176;2023-02-28T14:48:23;3.40;61.30
14727;DHT22;7454;51.256;8.176;2023-02-28T14:50:57;3.30;61.30
14727;DHT22;7454;51.256;8.176;2023-02-28T14:53:25;3.30;61.50
14727;DHT22;7454;51.256;8.176;2023-02-28T14:55:52;3.30;61.50
14727;DHT22;7454;51.256;8.176;2023-02-28T15:00:49;3.40;62.00
14727;DHT22;7454;51.256;8.176;2023-02-28T15:03:20;3.30;61.70
14727;DHT22;7454;51.256;8.176;2023-02-28T15:06:20;3.40;61.90
14727;DHT22;7454;51.256;8.176;2023-02-28T15:08:46;3.40;61.50
14727;DHT22;7454;51.256;8.176;2023-02-28T15:11:16;3.30;61.40
14727;DHT22;7454;51.256;8.176;2023-02-28T15:13:51;3.30;61.40
14727;DHT22;7454;51.256;8.176;2023-02-28T15:18:49;3.30;61.50
14727;DHT22;7454;51.256;8.176;2023-02-28T15:21:36;3.30;61.50
14727;DHT22;7454;51.256;8.176;2023-02-28T15:24:07;3.30;61.50
14727;DHT22;7454;51.256;8.176;2023-02-28T15:26:39;3.30;61.60
14727;DHT22;7454;51.256;8.176;2023-02-28T15:29:18;3.20;61.20
14727;DHT22;7454;51.256;8.176;2023-02-28T15:31:48;3.20;61.40
14727;DHT22;7454;51.256;8.176;2023-02-28T15:34:42;3.20;61.20
14727;DHT22;7454;51.256;8.176;2023-02-28T15:37:27;3.20;61.30
14727;DHT22;7454;51.256;8.176;2023-02-28T15:40:15;3.20;61.70
14727;DHT22;7454;51.256;8.176;2023-02-28T15:42:43;3.20;61.60
14727;DHT22;7454;51.256;8.176;2023-02-28T15:45:27;3.20;61.40
14727;DHT22;7454;51.256;8.176;2023-02-28T15:47:55;3.20;61.40
14727;DHT22;7454;51.256;8.176;2023-02-28T15:50:21;3.20;61.30
14727;DHT22;7454;51.256;8.176;2023-02-28T15:52:47;3.20;61.50
14727;DHT22;7454;51.256;8.176;2023-02-28T15:57:54;3.20;61.30
14727;DHT22;7454;51.256;8.176;2023-02-28T16:00:24;3.20;61.40
14727;DHT22;7454;51.256;8.176;2023-02-28T16:02:52;3.20;61.50
14727;DHT22;7454;51.256;8.176;2023-02-28T16:05:19;3.20;61.30
14727;DHT22;7454;51.256;8.176;2023-02-28T16:07:54;3.10;61.20
14727;DHT22;7454;51.256;8.176;2023-02-28T16:10:20;3.10;61.20
14727;DHT22;7454;51.256;8.176;2023-02-28T16:12:48;3.10;61.30
14727;DHT22;7454;51.256;8.176;2023-02-28T16:15:18;3.00;61.10
14727;DHT22;7454;51.256;8.176;2023-02-28T16:17:44;3.00;61.20
14727;DHT22;7454;51.256;8.176;2023-02-28T16:20:15;3.00;61.20
14727;DHT22;7454;51.256;8.176;2023-02-28T16:22:43;2.90;61.20
14727;DHT22;7454;51.256;8.176;2023-02-28T16:25:13;3.00;61.30
14727;DHT22;7454;51.256;8.176;2023-02-28T16:27:39;2.90;61.30
14727;DHT22;7454;51.256;8.176;2023-02-28T16:30:06;2.90;61.30
14727;DHT22;7454;51.256;8.176;2023-02-28T16:32:35;2.90;61.50
14727;DHT22;7454;51.256;8.176;2023-02-28T16:35:01;2.80;61.40
14727;DHT22;7454;51.256;8.176;2023-02-28T16:37:28;2.80;61.60
14727;DHT22;7454;51.256;8.176;2023-02-28T16:39:53;2.80;61.40
14727;DHT22;7454;51.256;8.176;2023-02-28T16:42:23;2.70;61.50
14727;DHT22;7454;51.256;8.176;2023-02-28T16:44:51;2.70;61.50
14727;DHT22;7454;51.256;8.176;2023-02-28T16:47:17;2.70;61.70
14727;DHT22;7454;51.256;8.176;2023-02-28T16:49:43;2.60;61.60
14727;DHT22;7454;51.256;8.176;2023-02-28T16:52:10;2.60;61.60
14727;DHT22;7454;51.256;8.176;2023-02-28T16:54:37;2.50;61.70
14727;DHT22;7454;51.256;8.176;2023-02-28T16:57:04;2.50;61.60
14727;DHT22;7454;51.256;8.176;2023-02-28T16:59:30;2.40;61.60
14727;DHT22;7454;51.256;8.176;2023-02-28T17:01:56;2.40;61.60
14727;DHT22;7454;51.256;8.176;2023-02-28T17:04:24;2.30;61.70
14727;DHT22;7454;51.256;8.176;2023-02-28T17:06:51;2.30;61.70
14727;DHT22;7454;51.256;8.176;2023-02-28T17:09:17;2.20;61.80
14727;DHT22;7454;51.256;8.176;2023-02-28T17:11:45;2.20;62.00
14727;DHT22;7454;51.256;8.176;2023-02-28T17:14:11;2.20;62.00
14727;DHT22;7454;51.256;8.176;2023-02-28T17:16:37;2.10;62.00
14727;DHT22;7454;51.256;8.176;2023-02-28T17:19:10;2.00;62.00
14727;DHT22;7454;51.256;8.176;2023-02-28T17:21:38;2.00;62.20
14727;DHT22;7454;51.256;8.176;2023-02-28T17:24:07;1.90;62.20
14727;DHT22;7454;51.256;8.176;2023-02-28T17:26:33;1.90;62.30
14727;DHT22;7454;51.256;8.176;2023-02-28T17:28:58;1.90;62.40
14727;DHT22;7454;51.256;8.176;2023-02-28T17:31:24;1.80;62.40
14727;DHT22;7454;51.256;8.176;2023-02-28T17:33:51;1.80;62.60
14727;DHT22;7454;51.256;8.176;2023-02-28T17:36:20;1.70;62.80
14727;DHT22;7454;51.256;8.176;2023-02-28T17:38:48;1.70;62.90
14727;DHT22;7454;51.256;8.176;2023-02-28T17:41:14;1.70;63.00
14727;DHT22;7454;51.256;8.176;2023-02-28T17:43:40;1.70;63.10
14727;DHT22;7454;51.256;8.176;2023-02-28T17:46:08;1.60;63.10
14727;DHT22;7454;51.256;8.176;2023-02-28T17:48:41;1.60;63.20
14727;DHT22;7454;51.256;8.176;2023-02-28T17:51:07;1.50;63.10
14727;DHT22;7454;51.256;8.176;2023-02-28T17:53:34;1.50;63.20
14727;DHT22;7454;51.256;8.176;2023-02-28T17:56:00;1.50;63.30
14727;DHT22;7454;51.256;8.176;2023-02-28T17:58:25;1.40;63.60
14727;DHT22;7454;51.256;8.176;2023-02-28T18:00:51;1.40;63.50
14727;DHT22;7454;51.256;8.176;2023-02-28T18:03:20;1.30;63.50
14727;DHT22;7454;51.256;8.176;2023-02-28T18:05:46;1.30;63.60
14727;DHT22;7454;51.256;8.176;2023-02-28T18:08:12;1.30;63.70
14727;DHT22;7454;51.256;8.176;2023-02-28T18:10:38;1.20;63.80
14727;DHT22;7454;51.256;8.176;2023-02-28T18:13:04;1.20;63.80
14727;DHT22;7454;51.256;8.176;2023-02-28T18:15:30;1.20;63.90
14727;DHT22;7454;51.256;8.176;2023-02-28T18:17:56;1.10;64.00
14727;DHT22;7454;51.256;8.176;2023-02-28T18:20:21;1.10;64.10
14727;DHT22;7454;51.256;8.176;2023-02-28T18:22:47;1.10;64.40